Impacts METAR Board
IDs:

KMEM - Memphis Intl, TN, US

Updated at: 0900 UTC 25 May 2020
Potential Impact None Slight Moderate High
Time 24/21Z 24/22Z 24/23Z 25/00Z 25/01Z 25/02Z 25/03Z 25/04Z 25/05Z 25/06Z 25/07Z 25/08Z 25/09Z
Temp87 86 86 84 82 81 80 79 78 78 76 76 74
Dewpt69 70 67 67 67 69 69 69 69 68 67 67 67
Altim29.94 29.90 29.89 29.90 29.92 29.93 29.94 29.95 29.92 29.91 29.89 29.90 29.91
VIS10 10 10 10 10 10 10 10 10 10 10 10 10
CIG-- -- -- -- -- -- -- -- -- -- -- -- --
CoverSCTFEWFEWFEWSCTSCTFEWFEWFEWCLRCLRCLRCLR
FltCatVFRVFRVFRVFRVFRVFRVFRVFRVFRVFRVFRVFRVFR
WX--------------------------
WDir170150150140160120120110120130130150140
WSpd9 7 11 11 8 6 9 9 7 6 5 7 5
WGst15 -- -- -- -- -- -- -- -- -- -- -- --
Raw hourly METARs
KMEM 242054Z 17009G15KT 10SM FEW039 SCT150 31/21 A2994 RMK AO2 SLP133 T03060206 58030 $
KMEM 242154Z 15007KT 10SM FEW042 30/21 A2990 RMK AO2 SLP122 T03000211 $
KMEM 242254Z 15011KT 10SM FEW042 30/19 A2989 RMK AO2 SLP118 T03000194 $
KMEM 242354Z 14011KT 10SM FEW042 FEW250 29/19 A2990 RMK AO2 SLP119 T02890194 10306 20278 55013 $
KMEM 250054Z 16008KT 10SM FEW040 SCT250 28/19 A2992 RMK AO2 SLP128 T02780194 $
KMEM 250154Z 12006KT 10SM SCT250 27/21 A2993 RMK AO2 SLP131 T02720206 $
KMEM 250254Z 12009KT 10SM FEW250 27/21 A2994 RMK AO2 SLP134 T02670206 51015 $
KMEM 250354Z 11009KT 10SM FEW120 FEW250 26/21 A2995 RMK AO2 SLP136 T02610206 $
KMEM 250454Z 12007KT 10SM FEW120 FEW250 26/21 A2992 RMK AO2 SLP128 T02560206 $
KMEM 250554Z 13006KT 10SM CLR 26/20 A2991 RMK AO2 SLP123 T02560200 10294 20256 403060206 58011 $
KMEM 250654Z 13005KT 10SM CLR 24/19 A2989 RMK AO2 SLP118 T02440194 $
KMEM 250754Z 15007KT 10SM CLR 24/19 A2990 RMK AO2 SLP122 T02440194 $
KMEM 250854Z 14005KT 10SM CLR 23/19 A2991 RMK AO2 SLP125 T02330194 53003 $



Page loaded:  09:23 UTC  |   02:23 AM Pacific  |   03:23 AM Mountain  |   04:23 AM Central  |   05:23 AM Eastern

 

ADVISORIES

FORECASTS

FORECASTS

OBSERVATIONS

USER TOOLS

ABOUT US